createdAt,value
2018-07-11T00:01:01.186Z,17.70
2018-07-11T00:04:34.424Z,17.70
2018-07-11T00:08:07.660Z,17.80
2018-07-11T00:11:40.890Z,17.80
2018-07-11T00:15:14.117Z,17.80
2018-07-11T00:18:47.335Z,17.90
2018-07-11T00:22:20.560Z,17.90
2018-07-11T00:25:53.812Z,18.00
2018-07-11T00:29:27.083Z,18.00
2018-07-11T00:33:00.325Z,18.00
2018-07-11T00:40:06.528Z,18.10
2018-07-11T00:43:39.761Z,18.10
2018-07-11T00:47:13.012Z,18.10
2018-07-11T00:54:19.497Z,18.10
2018-07-11T00:57:52.725Z,18.10
2018-07-11T01:01:25.989Z,18.10
2018-07-11T01:04:59.228Z,18.00
2018-07-11T01:08:33.784Z,18.00
2018-07-11T01:12:07.033Z,18.00
2018-07-11T01:15:40.264Z,18.00
2018-07-11T01:19:14.272Z,18.00
2018-07-11T01:22:47.496Z,17.90
2018-07-11T01:26:23.864Z,17.90
2018-07-11T01:29:57.103Z,17.90
2018-07-11T01:33:30.341Z,17.90
2018-07-11T01:37:03.581Z,17.90
2018-07-11T01:40:36.830Z,17.90
2018-07-11T01:44:10.048Z,17.70
2018-07-11T01:47:43.283Z,17.60
2018-07-11T01:51:16.529Z,17.70
2018-07-11T01:54:49.780Z,17.70
2018-07-11T01:58:23.057Z,17.60
2018-07-11T02:01:56.313Z,17.50
2018-07-11T02:05:29.575Z,17.40
2018-07-11T02:09:02.856Z,17.30
2018-07-11T02:12:36.514Z,17.20
2018-07-11T02:16:09.778Z,17.20
2018-07-11T02:19:43.381Z,17.20
2018-07-11T02:23:16.653Z,17.10
2018-07-11T02:26:49.929Z,17.00
2018-07-11T02:30:23.215Z,17.00
2018-07-11T02:33:56.469Z,17.00
2018-07-11T02:37:29.712Z,16.90
2018-07-11T02:41:02.950Z,17.00
2018-07-11T02:44:36.180Z,17.00
2018-07-11T02:48:09.449Z,17.00
2018-07-11T02:55:15.749Z,17.00
2018-07-11T02:58:48.980Z,17.00
2018-07-11T03:02:22.241Z,16.90
2018-07-11T03:05:55.469Z,16.70
2018-07-11T03:09:28.704Z,16.80
2018-07-11T03:13:01.946Z,16.70
2018-07-11T03:16:35.159Z,16.60
2018-07-11T03:20:08.389Z,16.60
2018-07-11T03:23:41.668Z,16.60
2018-07-11T03:27:14.921Z,16.70
2018-07-11T03:30:48.275Z,16.70
2018-07-11T03:34:21.533Z,16.70
2018-07-11T03:37:54.871Z,16.70
2018-07-11T03:41:28.137Z,16.70
2018-07-11T03:45:01.399Z,16.70
2018-07-11T03:48:34.662Z,16.70
2018-07-11T03:52:07.904Z,16.70
2018-07-11T03:55:41.140Z,16.80
2018-07-11T03:59:14.364Z,16.90
2018-07-11T04:02:47.588Z,16.90
2018-07-11T04:06:20.800Z,16.90
2018-07-11T04:09:54.042Z,17.00
2018-07-11T04:17:00.308Z,16.90
2018-07-11T04:20:33.544Z,17.00
2018-07-11T04:24:06.795Z,17.00
2018-07-11T04:27:40.024Z,17.10
2018-07-11T04:31:13.241Z,17.10
2018-07-11T04:34:46.484Z,17.10
2018-07-11T04:38:19.762Z,17.20
2018-07-11T04:41:52.984Z,17.20
2018-07-11T04:45:26.220Z,17.20
2018-07-11T04:48:59.538Z,17.20
2018-07-11T04:52:32.844Z,17.20
2018-07-11T04:56:06.065Z,17.20
2018-07-11T04:59:39.376Z,17.20
2018-07-11T05:03:12.624Z,17.30
2018-07-11T05:06:45.856Z,17.30
2018-07-11T05:10:19.130Z,17.30
2018-07-11T05:17:25.357Z,17.20
2018-07-11T05:20:58.589Z,17.10
2018-07-11T05:24:31.825Z,16.90
2018-07-11T05:28:05.180Z,16.80
2018-07-11T05:31:38.473Z,16.70
2018-07-11T05:35:11.693Z,16.70
2018-07-11T05:38:44.944Z,16.60
2018-07-11T05:45:51.197Z,16.60
2018-07-11T05:49:24.428Z,16.60
2018-07-11T05:52:57.667Z,16.70
2018-07-11T05:56:30.907Z,16.90
2018-07-11T06:00:04.173Z,17.00
2018-07-11T06:03:37.406Z,17.00
2018-07-11T06:07:10.650Z,17.20
2018-07-11T06:10:43.880Z,17.30
2018-07-11T06:14:17.140Z,17.50
2018-07-11T06:17:50.389Z,17.80
2018-07-11T06:21:24.111Z,18.00
2018-07-11T06:24:57.344Z,18.10
2018-07-11T06:28:30.670Z,18.20
2018-07-11T06:32:03.995Z,18.30
2018-07-11T06:35:37.355Z,18.20
2018-07-11T06:39:10.618Z,18.10
2018-07-11T06:42:44.266Z,18.20
2018-07-11T06:46:17.554Z,18.20
2018-07-11T06:49:50.817Z,18.20
2018-07-11T06:53:24.094Z,18.20
2018-07-11T06:56:57.351Z,18.30
2018-07-11T07:04:03.619Z,18.40
2018-07-11T07:07:36.888Z,18.40
2018-07-11T07:11:10.133Z,18.40
2018-07-11T07:14:43.398Z,18.40
2018-07-11T07:18:16.724Z,18.60
2018-07-11T07:21:49.988Z,18.60
2018-07-11T07:25:23.257Z,18.50
2018-07-11T07:28:56.529Z,18.50
2018-07-11T07:32:29.760Z,18.50
2018-07-11T07:36:03.026Z,18.50
2018-07-11T07:39:36.297Z,18.50
2018-07-11T07:43:09.544Z,18.30
2018-07-11T07:50:20.154Z,18.50
2018-07-11T07:53:53.486Z,18.80
2018-07-11T07:57:28.001Z,18.90
2018-07-11T08:01:01.258Z,19.00
2018-07-11T08:04:34.527Z,19.00
2018-07-11T08:08:07.797Z,18.70
2018-07-11T08:11:41.096Z,18.60
2018-07-11T08:15:14.359Z,18.50
2018-07-11T08:18:47.619Z,18.70
2018-07-11T08:23:35.446Z,19.00
2018-07-11T08:27:18.909Z,19.30
2018-07-11T08:31:07.918Z,19.60
2018-07-11T08:34:59.012Z,19.80
2018-07-11T08:38:46.124Z,20.10
2018-07-11T08:42:40.424Z,20.60
2018-07-11T08:48:27.067Z,21.20
2018-07-11T08:54:13.440Z,21.60
2018-07-11T08:59:17.313Z,21.60
2018-07-11T09:05:04.583Z,21.10
2018-07-11T09:11:09.222Z,20.70
2018-07-11T09:17:01.209Z,20.20
2018-07-11T09:20:45.368Z,19.90
2018-07-11T09:24:28.661Z,19.60
2018-07-11T09:28:01.859Z,19.40
2018-07-11T09:31:35.117Z,19.40
2018-07-11T09:35:08.366Z,19.40
2018-07-11T09:38:41.629Z,19.60
2018-07-11T09:42:15.329Z,19.60
2018-07-11T09:45:48.604Z,19.70
2018-07-11T09:49:22.066Z,19.90
2018-07-11T09:52:55.315Z,20.00
2018-07-11T09:56:28.704Z,20.10
2018-07-11T10:00:01.969Z,20.30
2018-07-11T10:03:35.299Z,20.50
2018-07-11T10:07:08.587Z,20.60
2018-07-11T10:10:41.852Z,20.60
2018-07-11T10:14:15.117Z,20.70
2018-07-11T10:17:48.398Z,20.70
2018-07-11T10:24:54.798Z,20.80
2018-07-11T10:28:28.040Z,20.90
2018-07-11T10:32:01.288Z,21.10
2018-07-11T10:35:34.524Z,21.10
2018-07-11T10:39:07.858Z,21.20
2018-07-11T10:42:41.088Z,21.20
2018-07-11T10:46:14.384Z,20.80
2018-07-11T10:49:47.714Z,20.30
2018-07-11T10:53:21.083Z,19.90
2018-07-11T10:56:54.681Z,19.70
2018-07-11T11:00:36.664Z,19.60
2018-07-11T11:04:02.848Z,19.50
2018-07-11T11:11:09.395Z,19.40
2018-07-11T11:14:42.722Z,19.40
2018-07-11T11:18:16.007Z,19.40
2018-07-11T11:21:49.261Z,19.40
2018-07-11T11:25:22.546Z,19.30
2018-07-11T11:28:55.813Z,19.30
2018-07-11T11:32:29.224Z,19.50
2018-07-11T11:36:02.525Z,19.60
2018-07-11T11:39:35.769Z,19.80
2018-07-11T11:43:09.030Z,19.80
2018-07-11T11:46:42.319Z,19.80
2018-07-11T11:50:15.606Z,20.00
2018-07-11T11:53:48.887Z,20.20
2018-07-11T11:57:22.550Z,20.60
2018-07-11T12:00:55.798Z,20.90
2018-07-11T12:04:29.081Z,21.30
2018-07-11T12:08:03.711Z,21.50
2018-07-11T12:11:37.062Z,21.70
2018-07-11T12:15:10.526Z,21.80
2018-07-11T12:18:43.867Z,22.00
2018-07-11T12:22:20.969Z,22.20
2018-07-11T12:26:09.107Z,22.40
2018-07-11T12:29:42.385Z,22.20
2018-07-11T12:33:15.648Z,21.90
2018-07-11T12:36:48.898Z,21.80
2018-07-11T12:40:22.198Z,21.70
2018-07-11T12:43:55.469Z,21.80
2018-07-11T12:47:34.154Z,21.80
2018-07-11T12:51:07.465Z,21.70
2018-07-11T12:58:13.776Z,21.40
2018-07-11T13:05:20.585Z,21.50
2018-07-11T13:12:26.863Z,21.60
2018-07-11T13:16:00.222Z,21.60
2018-07-11T13:19:33.419Z,21.60
2018-07-11T13:23:06.682Z,21.50
2018-07-11T13:26:39.949Z,21.40
2018-07-11T13:30:13.209Z,21.30
2018-07-11T13:33:46.505Z,21.20
2018-07-11T13:37:19.771Z,21.30
2018-07-11T13:44:26.016Z,21.50
2018-07-11T13:48:01.218Z,21.80
2018-07-11T13:55:07.556Z,22.10
2018-07-11T13:58:42.506Z,22.20
2018-07-11T14:02:15.782Z,22.30
2018-07-11T14:05:49.041Z,22.10
2018-07-11T14:09:22.672Z,22.00
2018-07-11T14:12:56.380Z,21.80
2018-07-11T14:16:29.836Z,21.70
2018-07-11T14:20:03.231Z,21.60
2018-07-11T14:23:39.977Z,21.50
2018-07-11T14:27:14.353Z,21.60
2018-07-11T14:30:47.978Z,21.70
2018-07-11T14:34:21.978Z,22.10
2018-07-11T14:37:55.602Z,22.40
2018-07-11T14:41:28.922Z,22.50
2018-07-11T14:48:35.589Z,22.80
2018-07-11T14:52:08.935Z,22.90
2018-07-11T14:55:42.295Z,22.60
2018-07-11T14:59:15.728Z,22.30
2018-07-11T15:06:23.051Z,22.10
2018-07-11T15:13:29.909Z,21.90
2018-07-11T15:17:03.271Z,21.60
2018-07-11T15:20:36.648Z,21.40
2018-07-11T15:24:09.988Z,21.30
2018-07-11T15:27:43.554Z,21.20
2018-07-11T15:31:16.890Z,21.10
2018-07-11T15:34:51.369Z,21.00
2018-07-11T15:38:25.766Z,20.90
2018-07-11T15:42:00.455Z,20.90
2018-07-11T15:45:33.737Z,21.00
2018-07-11T15:49:07.210Z,21.20
2018-07-11T15:52:40.853Z,21.70
2018-07-11T15:56:14.132Z,22.40
2018-07-11T15:59:52.516Z,22.60
2018-07-11T16:03:26.556Z,22.60
2018-07-11T16:07:03.753Z,22.50
2018-07-11T16:10:45.751Z,22.50
2018-07-11T16:14:19.015Z,22.40
2018-07-11T16:17:52.374Z,22.40
2018-07-11T16:21:25.665Z,22.40
2018-07-11T16:24:58.970Z,22.30
2018-07-11T16:28:32.729Z,22.10
2018-07-11T16:32:06.569Z,21.90
2018-07-11T16:35:39.836Z,21.70
2018-07-11T16:39:13.100Z,21.60
2018-07-11T16:42:46.377Z,21.40
2018-07-11T16:46:19.658Z,21.30
2018-07-11T16:49:52.953Z,21.30
2018-07-11T17:00:33.705Z,20.80
2018-07-11T17:04:08.521Z,20.70
2018-07-11T17:07:52.593Z,20.60
2018-07-11T17:11:27.019Z,20.50
2018-07-11T17:15:01.052Z,20.50
2018-07-11T17:18:40.771Z,20.50
2018-07-11T17:22:14.264Z,20.50
2018-07-11T17:25:47.573Z,20.40
2018-07-11T17:33:00.125Z,20.30
2018-07-11T17:36:35.438Z,20.20
2018-07-11T17:40:10.953Z,20.10
2018-07-11T17:43:47.446Z,19.90
2018-07-11T17:47:23.017Z,19.80
2018-07-11T17:51:00.426Z,19.70
2018-07-11T17:54:42.337Z,19.70
2018-07-11T17:58:15.622Z,19.60
2018-07-11T18:01:51.536Z,19.50
2018-07-11T18:05:32.124Z,19.50
2018-07-11T18:09:07.241Z,19.50
2018-07-11T18:12:52.701Z,19.50
2018-07-11T18:16:38.841Z,19.40
2018-07-11T18:20:32.632Z,19.40
2018-07-11T18:24:11.256Z,19.40
2018-07-11T18:30:00.464Z,19.30
2018-07-11T18:33:50.624Z,19.30
2018-07-11T18:37:35.497Z,19.30
2018-07-11T18:41:14.638Z,19.30
2018-07-11T18:44:57.554Z,19.30
2018-07-11T18:49:38.993Z,19.30
2018-07-11T18:53:20.728Z,19.30
2018-07-11T18:57:03.774Z,19.30
2018-07-11T19:00:47.422Z,19.40
2018-07-11T19:04:30.286Z,19.50
2018-07-11T19:08:10.461Z,19.40
2018-07-11T19:11:54.177Z,19.30
2018-07-11T19:19:09.198Z,19.10
2018-07-11T19:22:59.904Z,19.10
2018-07-11T19:26:42.157Z,19.10
2018-07-11T19:30:28.165Z,19.00
2018-07-11T19:34:12.772Z,18.90
2018-07-11T19:37:54.861Z,18.90
2018-07-11T19:41:41.021Z,18.90
2018-07-11T19:45:21.365Z,18.90
2018-07-11T19:49:13.945Z,18.90
2018-07-11T19:52:56.294Z,19.00
2018-07-11T19:56:46.306Z,19.00
2018-07-11T20:00:19.673Z,18.90
2018-07-11T20:03:52.984Z,18.90
2018-07-11T20:07:26.274Z,18.80
2018-07-11T20:10:59.577Z,18.70
2018-07-11T20:14:32.886Z,18.70
2018-07-11T20:18:06.161Z,18.60
2018-07-11T20:25:12.442Z,18.50
2018-07-11T20:28:45.753Z,18.50
2018-07-11T20:32:19.073Z,18.40
2018-07-11T20:39:25.388Z,18.50
2018-07-11T20:42:58.650Z,18.40
2018-07-11T20:46:32.900Z,18.30
2018-07-11T20:50:06.220Z,18.20
2018-07-11T20:53:39.566Z,18.20
2018-07-11T20:57:12.869Z,18.20
2018-07-11T21:00:57.377Z,18.10
2018-07-11T21:04:42.096Z,18.10
2018-07-11T21:08:58.945Z,18.20
2018-07-11T21:15:44.709Z,18.30
2018-07-11T21:19:17.957Z,18.30
2018-07-11T21:22:51.212Z,18.30
2018-07-11T21:26:24.562Z,18.20
2018-07-11T21:29:57.833Z,18.20
2018-07-11T21:33:31.260Z,18.30
2018-07-11T21:37:04.793Z,18.30
2018-07-11T21:40:38.641Z,18.30
2018-07-11T21:44:11.896Z,18.30
2018-07-11T21:47:45.168Z,18.20
2018-07-11T21:51:18.473Z,18.20
2018-07-11T21:54:51.747Z,18.20
2018-07-11T21:58:25.070Z,18.10
2018-07-11T22:01:58.356Z,18.10
2018-07-11T22:05:32.179Z,18.10
2018-07-11T22:09:05.857Z,18.10
2018-07-11T22:12:39.149Z,18.00
2018-07-11T22:16:12.437Z,18.00
2018-07-11T22:19:45.137Z,18.00
2018-07-11T22:23:17.421Z,18.00
2018-07-11T22:26:49.661Z,17.90
2018-07-11T22:33:54.446Z,18.00
2018-07-11T22:37:26.828Z,18.00
2018-07-11T22:40:59.120Z,18.10
2018-07-11T22:44:31.409Z,18.00
2018-07-11T22:48:04.863Z,18.00
2018-07-11T22:51:37.129Z,18.10
2018-07-11T22:55:09.389Z,18.10
2018-07-11T22:58:44.728Z,18.10
2018-07-11T23:02:17.134Z,18.10
2018-07-11T23:05:49.395Z,18.00
2018-07-11T23:09:21.633Z,18.00
2018-07-11T23:12:53.898Z,18.00
2018-07-11T23:16:26.168Z,18.00
2018-07-11T23:19:58.425Z,18.00
2018-07-11T23:23:30.694Z,18.00
2018-07-11T23:27:02.959Z,18.00
2018-07-11T23:30:35.245Z,17.90
2018-07-11T23:34:07.673Z,17.90
2018-07-11T23:37:39.943Z,17.90
2018-07-11T23:41:12.205Z,18.00
2018-07-11T23:44:44.449Z,17.90
2018-07-11T23:48:16.726Z,17.80
2018-07-11T23:51:48.993Z,17.70
2018-07-11T23:55:21.257Z,17.70
2018-07-11T23:58:53.521Z,17.60
